createdAt,value
2022-08-29T00:02:19.816Z,16.82
2022-08-29T00:04:50.558Z,16.78
2022-08-29T00:07:22.112Z,16.77
2022-08-29T00:09:52.308Z,16.73
2022-08-29T00:12:25.162Z,16.71
2022-08-29T00:14:55.413Z,16.71
2022-08-29T00:17:25.519Z,16.66
2022-08-29T00:19:55.604Z,16.66
2022-08-29T00:22:26.764Z,16.64
2022-08-29T00:24:57.016Z,16.63
2022-08-29T00:27:29.843Z,16.60
2022-08-29T00:30:00.452Z,16.58
2022-08-29T00:32:35.173Z,16.54
2022-08-29T00:35:06.777Z,16.54
2022-08-29T00:37:37.046Z,16.50
2022-08-29T00:40:11.768Z,16.48
2022-08-29T00:42:44.713Z,16.44
2022-08-29T00:45:18.135Z,16.42
2022-08-29T00:47:52.956Z,16.43
2022-08-29T00:50:31.713Z,16.43
2022-08-29T00:53:04.777Z,16.42
2022-08-29T00:55:39.304Z,16.43
2022-08-29T00:58:17.564Z,16.39
2022-08-29T01:00:49.707Z,16.39
2022-08-29T01:03:19.902Z,16.38
2022-08-29T01:05:50.198Z,16.37
2022-08-29T01:08:20.491Z,16.34
2022-08-29T01:11:03.354Z,16.33
2022-08-29T01:13:41.956Z,16.35
2022-08-29T01:16:14.720Z,16.31
2022-08-29T01:18:48.477Z,16.32
2022-08-29T01:21:25.847Z,16.31
2022-08-29T01:24:08.569Z,16.28
2022-08-29T01:26:43.714Z,16.26
2022-08-29T01:29:14.697Z,16.26
2022-08-29T01:31:55.948Z,16.24
2022-08-29T01:34:31.481Z,16.23
2022-08-29T01:37:04.781Z,16.20
2022-08-29T01:39:38.347Z,16.22
2022-08-29T01:42:14.710Z,16.20
2022-08-29T01:44:45.275Z,16.18
2022-08-29T01:47:15.492Z,16.15
2022-08-29T01:49:45.856Z,16.13
2022-08-29T01:52:16.319Z,16.10
2022-08-29T01:54:48.196Z,16.09
2022-08-29T01:57:21.504Z,16.09
2022-08-29T01:59:51.875Z,16.10
2022-08-29T02:02:26.109Z,16.06
2022-08-29T02:04:58.792Z,16.01
2022-08-29T02:07:29.665Z,16.01
2022-08-29T02:09:59.798Z,15.97
2022-08-29T02:12:33.067Z,15.92
2022-08-29T02:15:03.822Z,15.92
2022-08-29T02:17:34.107Z,15.91
2022-08-29T02:20:05.842Z,15.89
2022-08-29T02:22:38.658Z,15.86
2022-08-29T02:25:24.262Z,15.83
2022-08-29T02:27:58.436Z,15.81
2022-08-29T02:30:28.779Z,15.77
2022-08-29T02:32:59.018Z,15.75
2022-08-29T02:35:30.204Z,15.75
2022-08-29T02:38:03.911Z,15.75
2022-08-29T02:40:35.370Z,15.72
2022-08-29T02:43:09.422Z,15.69
2022-08-29T02:45:40.917Z,15.66
2022-08-29T02:48:12.291Z,15.63
2022-08-29T02:50:44.179Z,15.60
2022-08-29T02:53:14.791Z,15.62
2022-08-29T02:55:45.212Z,15.62
2022-08-29T02:58:18.569Z,15.60
2022-08-29T03:00:48.943Z,15.54
2022-08-29T03:03:19.561Z,15.52
2022-08-29T03:05:51.031Z,15.46
2022-08-29T03:08:21.404Z,15.48
2022-08-29T03:10:51.688Z,15.44
2022-08-29T03:13:24.729Z,15.47
2022-08-29T03:15:55.259Z,15.44
2022-08-29T03:18:26.174Z,15.40
2022-08-29T03:20:56.189Z,15.39
2022-08-29T03:23:26.432Z,15.36
2022-08-29T03:25:56.887Z,15.35
2022-08-29T03:28:30.237Z,15.34
2022-08-29T03:31:00.469Z,15.32
2022-08-29T03:33:30.694Z,15.32
2022-08-29T03:36:00.968Z,15.29
2022-08-29T03:38:31.231Z,15.29
2022-08-29T03:41:01.432Z,15.28
2022-08-29T03:43:34.288Z,15.27
2022-08-29T03:46:04.720Z,15.25
2022-08-29T03:48:35.572Z,15.24
2022-08-29T03:51:05.814Z,15.21
2022-08-29T03:53:36.471Z,15.15
2022-08-29T03:56:07.588Z,15.14
2022-08-29T03:58:44.190Z,15.15
2022-08-29T04:01:17.031Z,15.15
2022-08-29T04:03:47.260Z,15.16
2022-08-29T04:06:17.425Z,15.08
2022-08-29T04:08:49.711Z,15.10
2022-08-29T04:11:22.065Z,15.11
2022-08-29T04:13:56.114Z,15.10
2022-08-29T04:16:30.863Z,15.06
2022-08-29T04:19:02.049Z,15.04
2022-08-29T04:21:33.981Z,15.03
2022-08-29T04:24:04.121Z,15.00
2022-08-29T04:26:37.467Z,15.02
2022-08-29T04:29:14.137Z,15.01
2022-08-29T04:31:46.020Z,15.01
2022-08-29T04:34:16.741Z,15.00
2022-08-29T04:36:48.340Z,14.99
2022-08-29T04:39:18.983Z,15.01
2022-08-29T04:41:49.142Z,15.02
2022-08-29T04:44:21.955Z,15.04
2022-08-29T04:46:52.238Z,15.04
2022-08-29T04:49:22.648Z,15.05
2022-08-29T04:51:55.839Z,15.05
2022-08-29T04:54:26.144Z,15.08
2022-08-29T04:56:57.333Z,15.09
2022-08-29T04:59:30.489Z,15.14
2022-08-29T05:02:00.944Z,15.16
2022-08-29T05:04:31.725Z,15.21
2022-08-29T05:07:01.946Z,15.22
2022-08-29T05:09:32.077Z,15.25
2022-08-29T05:12:06.037Z,15.28
2022-08-29T05:14:42.958Z,15.32
2022-08-29T05:17:14.314Z,15.38
2022-08-29T05:19:45.271Z,15.46
2022-08-29T05:22:17.010Z,15.54
2022-08-29T05:24:47.662Z,15.64
2022-08-29T05:27:24.799Z,15.74
2022-08-29T05:29:58.443Z,15.85
2022-08-29T05:32:28.947Z,15.91
2022-08-29T05:35:00.237Z,16.01
2022-08-29T05:37:30.420Z,16.13
2022-08-29T05:40:00.841Z,16.17
2022-08-29T05:42:31.202Z,16.22
2022-08-29T05:45:06.530Z,16.24
2022-08-29T05:47:36.866Z,16.25
2022-08-29T05:50:08.280Z,16.28
2022-08-29T05:52:38.398Z,16.48
2022-08-29T05:55:09.343Z,16.46
2022-08-29T05:57:39.800Z,16.49
2022-08-29T06:00:15.284Z,16.49
2022-08-29T06:02:45.639Z,16.65
2022-08-29T06:05:18.492Z,16.78
2022-08-29T06:07:48.647Z,17.00
2022-08-29T06:10:18.820Z,17.25
2022-08-29T06:12:48.992Z,17.33
2022-08-29T06:15:22.616Z,17.45
2022-08-29T06:17:53.107Z,17.27
2022-08-29T06:20:24.547Z,17.41
2022-08-29T06:22:54.704Z,17.37
2022-08-29T06:25:40.526Z,17.61
2022-08-29T06:28:11.034Z,17.79
2022-08-29T06:30:46.128Z,17.90
2022-08-29T06:33:17.422Z,18.02
2022-08-29T06:35:47.637Z,18.41
2022-08-29T06:38:18.001Z,18.59
2022-08-29T06:40:48.166Z,18.87
2022-08-29T06:43:18.317Z,19.02
2022-08-29T06:45:51.361Z,19.16
2022-08-29T06:48:22.406Z,19.37
2022-08-29T06:50:55.420Z,19.51
2022-08-29T06:53:31.771Z,19.79
2022-08-29T06:56:11.284Z,19.84
2022-08-29T06:58:42.379Z,19.93
2022-08-29T07:01:18.419Z,20.12
2022-08-29T07:03:49.004Z,20.35
2022-08-29T07:06:20.899Z,20.56
2022-08-29T07:08:55.876Z,20.72
2022-08-29T07:11:27.648Z,21.01
2022-08-29T07:14:00.746Z,21.30
2022-08-29T07:16:35.734Z,21.43
2022-08-29T07:19:08.371Z,21.43
2022-08-29T07:21:39.223Z,21.65
2022-08-29T07:24:10.863Z,21.89
2022-08-29T07:26:45.240Z,22.09
2022-08-29T07:29:19.458Z,22.27
2022-08-29T07:31:52.800Z,22.49
2022-08-29T07:34:23.194Z,22.63
2022-08-29T07:36:53.339Z,22.91
2022-08-29T07:39:25.147Z,22.94
2022-08-29T07:41:55.756Z,23.09
2022-08-29T07:44:26.006Z,23.18
2022-08-29T07:47:03.733Z,23.49
2022-08-29T07:49:41.150Z,23.34
2022-08-29T07:52:11.934Z,23.46
2022-08-29T07:54:42.158Z,23.83
2022-08-29T07:57:12.945Z,24.19
2022-08-29T07:59:43.095Z,24.32
2022-08-29T08:02:16.768Z,24.83
2022-08-29T08:04:47.291Z,25.04
2022-08-29T08:07:29.306Z,25.36
2022-08-29T08:10:00.059Z,26.03
2022-08-29T08:12:30.350Z,26.80
2022-08-29T08:15:01.196Z,27.80
2022-08-29T08:17:34.007Z,28.49
2022-08-29T08:20:05.997Z,29.21
2022-08-29T08:22:36.136Z,30.02
2022-08-29T08:25:07.922Z,30.44
2022-08-29T08:27:42.205Z,31.11
2022-08-29T08:30:15.418Z,31.84
2022-08-29T08:32:54.091Z,32.02
2022-08-29T08:35:25.838Z,32.32
2022-08-29T08:37:56.458Z,32.66
2022-08-29T08:40:30.459Z,33.16
2022-08-29T08:43:03.736Z,33.32
2022-08-29T08:45:40.040Z,33.70
2022-08-29T08:48:20.752Z,34.02
2022-08-29T08:50:55.171Z,33.87
2022-08-29T08:53:33.930Z,33.74
2022-08-29T08:56:09.051Z,33.37
2022-08-29T08:58:50.745Z,34.17
2022-08-29T09:01:26.718Z,34.31
2022-08-29T09:04:16.337Z,34.32
2022-08-29T09:06:57.216Z,33.69
2022-08-29T09:09:43.959Z,33.38
2022-08-29T09:12:35.319Z,33.53
2022-08-29T09:15:13.824Z,33.73
2022-08-29T09:17:53.153Z,33.71
2022-08-29T09:20:35.615Z,33.69
2022-08-29T09:23:10.843Z,33.58
2022-08-29T09:25:41.077Z,33.49
2022-08-29T09:28:12.236Z,33.48
2022-08-29T09:30:46.642Z,33.76
2022-08-29T09:33:19.190Z,33.42
2022-08-29T09:35:56.064Z,33.85
2022-08-29T09:38:28.460Z,34.30
2022-08-29T09:41:01.828Z,34.15
2022-08-29T09:43:50.500Z,34.07
2022-08-29T09:46:25.774Z,33.75
2022-08-29T09:49:15.825Z,33.80
2022-08-29T09:51:52.149Z,33.79
2022-08-29T09:54:31.340Z,33.52
2022-08-29T09:57:06.658Z,33.75
2022-08-29T09:59:40.743Z,33.57
2022-08-29T10:02:25.284Z,33.61
2022-08-29T10:04:58.609Z,33.52
2022-08-29T10:07:37.776Z,33.72
2022-08-29T10:10:18.035Z,33.84
2022-08-29T10:13:02.581Z,33.16
2022-08-29T10:15:50.596Z,33.05
2022-08-29T10:18:30.603Z,33.10
2022-08-29T10:21:17.873Z,33.21
2022-08-29T10:24:21.382Z,33.41
2022-08-29T10:27:01.390Z,33.62
2022-08-29T10:29:53.614Z,33.48
2022-08-29T10:32:42.136Z,33.68
2022-08-29T10:35:21.020Z,34.08
2022-08-29T10:37:58.814Z,34.01
2022-08-29T10:40:43.655Z,33.92
2022-08-29T10:43:38.740Z,33.93
2022-08-29T10:46:48.909Z,33.34
2022-08-29T10:49:32.584Z,33.64
2022-08-29T10:52:11.482Z,33.82
2022-08-29T10:54:54.542Z,33.94
2022-08-29T10:57:57.546Z,33.40
2022-08-29T11:00:38.525Z,34.02
2022-08-29T11:03:20.659Z,34.42
2022-08-29T11:06:00.971Z,34.20
2022-08-29T11:08:36.467Z,34.71
2022-08-29T11:11:07.384Z,34.68
2022-08-29T11:13:46.675Z,35.20
2022-08-29T11:16:23.677Z,35.26
2022-08-29T11:19:00.345Z,35.31
2022-08-29T11:21:37.176Z,35.89
2022-08-29T11:24:08.709Z,35.90
2022-08-29T11:26:55.410Z,35.83
2022-08-29T11:29:40.818Z,36.44
2022-08-29T11:32:17.418Z,37.13
2022-08-29T11:35:03.759Z,37.71
2022-08-29T11:38:07.879Z,37.79
2022-08-29T11:43:53.658Z,37.91
2022-08-29T11:46:41.632Z,38.97
2022-08-29T11:49:36.573Z,39.84
2022-08-29T11:52:29.453Z,39.94
2022-08-29T11:55:41.042Z,39.52
2022-08-29T11:58:48.755Z,39.34
2022-08-29T12:02:00.833Z,39.64
2022-08-29T12:04:57.082Z,40.60
2022-08-29T12:07:38.861Z,40.60
2022-08-29T12:10:16.074Z,40.70
2022-08-29T12:12:51.222Z,40.92
2022-08-29T12:15:56.760Z,40.97
2022-08-29T12:18:44.087Z,40.65
2022-08-29T12:21:37.554Z,40.39
2022-08-29T12:24:09.248Z,39.87
2022-08-29T12:26:47.272Z,39.13
2022-08-29T12:29:22.173Z,39.01
2022-08-29T12:32:40.054Z,38.88
2022-08-29T12:35:59.452Z,37.65
2022-08-29T12:38:42.509Z,37.44
2022-08-29T12:41:37.108Z,37.71
2022-08-29T12:44:16.751Z,37.29
2022-08-29T12:46:51.011Z,36.66
2022-08-29T12:49:29.756Z,36.07
2022-08-29T12:52:03.652Z,36.35
2022-08-29T12:54:37.636Z,36.57
2022-08-29T12:57:11.622Z,36.33
2022-08-29T12:59:47.934Z,35.73
2022-08-29T13:02:28.830Z,36.01
2022-08-29T13:05:02.715Z,36.87
2022-08-29T13:07:33.889Z,37.41
2022-08-29T13:10:04.216Z,37.19
2022-08-29T13:12:37.823Z,37.00
2022-08-29T13:15:12.084Z,37.57
2022-08-29T13:17:45.751Z,36.84
2022-08-29T13:21:08.121Z,37.65
2022-08-29T13:23:48.606Z,38.53
2022-08-29T13:26:27.751Z,37.97
2022-08-29T13:29:01.213Z,36.53
2022-08-29T13:31:36.530Z,37.06
2022-08-29T13:34:17.828Z,37.48
2022-08-29T13:37:06.402Z,37.84
2022-08-29T13:39:47.864Z,38.01
2022-08-29T13:42:35.931Z,37.51
2022-08-29T13:45:24.020Z,37.06
2022-08-29T13:48:20.469Z,36.04
2022-08-29T13:50:50.742Z,36.31
2022-08-29T13:53:23.543Z,37.43
2022-08-29T13:55:53.835Z,38.24
2022-08-29T13:58:26.947Z,37.17
2022-08-29T14:00:57.493Z,36.33
2022-08-29T14:03:28.830Z,36.75
2022-08-29T14:05:59.908Z,36.77
2022-08-29T14:08:34.328Z,36.36
2022-08-29T14:11:04.496Z,36.50
2022-08-29T14:13:41.912Z,35.55
2022-08-29T14:16:13.075Z,34.46
2022-08-29T14:18:43.686Z,34.86
2022-08-29T14:21:13.967Z,35.78
2022-08-29T14:23:48.553Z,36.72
2022-08-29T14:26:18.757Z,36.35
2022-08-29T14:28:48.966Z,36.10
2022-08-29T14:31:19.167Z,35.58
2022-08-29T14:33:51.536Z,35.79
2022-08-29T14:36:22.155Z,35.52
2022-08-29T14:38:58.546Z,36.09
2022-08-29T14:41:28.857Z,36.68
2022-08-29T14:44:03.736Z,37.55
2022-08-29T14:46:34.086Z,37.29
2022-08-29T14:49:04.611Z,37.48
2022-08-29T14:51:34.956Z,37.32
2022-08-29T14:54:07.994Z,37.33
2022-08-29T14:56:49.187Z,36.17
2022-08-29T14:59:20.626Z,35.88
2022-08-29T15:01:54.531Z,36.46
2022-08-29T15:04:35.584Z,36.87
2022-08-29T15:07:07.531Z,36.98
2022-08-29T15:09:41.939Z,37.10
2022-08-29T15:12:12.844Z,36.77
2022-08-29T15:14:43.940Z,37.21
2022-08-29T15:17:14.970Z,37.06
2022-08-29T15:22:36.551Z,36.30
2022-08-29T15:25:11.197Z,35.91
2022-08-29T15:27:41.928Z,36.01
2022-08-29T15:30:14.657Z,36.74
2022-08-29T15:32:44.871Z,37.10
2022-08-29T15:35:19.923Z,37.04
2022-08-29T15:37:50.059Z,37.35
2022-08-29T15:40:22.930Z,37.28
2022-08-29T15:42:53.329Z,37.20
2022-08-29T15:45:23.619Z,36.90
2022-08-29T15:47:54.774Z,36.53
2022-08-29T15:50:25.914Z,35.91
2022-08-29T15:52:56.219Z,35.19
2022-08-29T15:55:29.046Z,34.35
2022-08-29T15:57:59.505Z,33.55
2022-08-29T16:00:31.283Z,32.79
2022-08-29T16:03:04.393Z,32.14
2022-08-29T16:05:36.007Z,31.75
2022-08-29T16:08:06.774Z,31.25
2022-08-29T16:10:40.348Z,30.74
2022-08-29T16:13:11.744Z,30.10
2022-08-29T16:15:42.026Z,29.57
2022-08-29T16:18:12.746Z,29.11
2022-08-29T16:20:43.077Z,28.72
2022-08-29T16:23:13.325Z,28.35
2022-08-29T16:25:46.441Z,28.01
2022-08-29T16:28:17.144Z,27.72
2022-08-29T16:30:49.825Z,27.50
2022-08-29T16:33:20.687Z,27.23
2022-08-29T16:35:50.833Z,26.89
2022-08-29T16:38:21.171Z,26.60
2022-08-29T16:40:53.699Z,26.43
2022-08-29T16:43:24.356Z,26.27
2022-08-29T16:45:54.676Z,26.14
2022-08-29T16:48:24.612Z,26.06
2022-08-29T16:50:54.933Z,25.92
2022-08-29T16:53:24.935Z,25.78
2022-08-29T16:55:57.649Z,25.73
2022-08-29T16:58:40.191Z,25.69
2022-08-29T17:01:10.580Z,25.57
2022-08-29T17:03:40.472Z,25.44
2022-08-29T17:06:11.536Z,25.34
2022-08-29T17:08:39.303Z,25.21
2022-08-29T17:11:09.910Z,25.06
2022-08-29T17:13:39.761Z,24.95
2022-08-29T17:16:09.866Z,24.81
2022-08-29T17:18:41.393Z,24.68
2022-08-29T17:21:12.250Z,24.55
2022-08-29T17:23:43.040Z,24.44
2022-08-29T17:26:19.151Z,24.31
2022-08-29T17:28:50.647Z,24.19
2022-08-29T17:31:21.047Z,24.13
2022-08-29T17:33:51.264Z,24.01
2022-08-29T17:36:21.792Z,23.91
2022-08-29T17:38:52.205Z,23.83
2022-08-29T17:41:25.967Z,23.74
2022-08-29T17:43:56.644Z,23.63
2022-08-29T17:46:26.883Z,23.53
2022-08-29T17:48:57.184Z,23.41
2022-08-29T17:51:28.397Z,23.25
2022-08-29T17:53:58.765Z,23.14
2022-08-29T17:56:44.396Z,23.02
2022-08-29T17:59:15.583Z,22.91
2022-08-29T18:01:46.724Z,22.82
2022-08-29T18:04:18.324Z,22.77
2022-08-29T18:06:49.511Z,22.72
2022-08-29T18:09:19.671Z,22.59
2022-08-29T18:11:55.637Z,22.55
2022-08-29T18:14:27.579Z,22.52
2022-08-29T18:16:59.060Z,22.44
2022-08-29T18:19:29.344Z,22.36
2022-08-29T18:21:59.567Z,22.30
2022-08-29T18:24:29.746Z,22.23
2022-08-29T18:27:02.691Z,22.16
2022-08-29T18:29:32.875Z,22.07
2022-08-29T18:32:03.436Z,22.01
2022-08-29T18:34:33.410Z,21.94
2022-08-29T18:37:03.614Z,21.87
2022-08-29T18:39:33.827Z,21.79
2022-08-29T18:42:24.736Z,21.72
2022-08-29T18:44:58.905Z,21.63
2022-08-29T18:47:29.331Z,21.55
2022-08-29T18:50:11.997Z,21.45
2022-08-29T18:52:42.237Z,21.41
2022-08-29T18:55:16.033Z,21.33
2022-08-29T18:57:50.329Z,21.25
2022-08-29T19:00:21.694Z,21.15
2022-08-29T19:02:51.869Z,21.06
2022-08-29T19:05:22.265Z,20.99
2022-08-29T19:07:52.740Z,20.92
2022-08-29T19:10:23.844Z,20.88
2022-08-29T19:12:58.757Z,20.78
2022-08-29T19:15:31.350Z,20.67
2022-08-29T19:18:01.567Z,20.62
2022-08-29T19:20:44.643Z,20.55
2022-08-29T19:23:15.401Z,20.49
2022-08-29T19:25:46.755Z,20.45
2022-08-29T19:28:22.536Z,20.35
2022-08-29T19:30:53.465Z,20.31
2022-08-29T19:33:23.810Z,20.26
2022-08-29T19:35:54.106Z,20.16
2022-08-29T19:38:27.642Z,20.14
2022-08-29T19:40:59.571Z,20.10
2022-08-29T19:43:35.906Z,20.06
2022-08-29T19:46:14.452Z,19.95
2022-08-29T19:48:50.941Z,19.88
2022-08-29T19:51:24.901Z,19.82
2022-08-29T19:53:57.415Z,19.80
2022-08-29T19:56:29.266Z,19.77
2022-08-29T19:59:02.888Z,19.76
2022-08-29T20:01:33.133Z,19.75
2022-08-29T20:04:03.413Z,19.73
2022-08-29T20:06:34.294Z,19.70
2022-08-29T20:09:05.604Z,19.69
2022-08-29T20:11:40.022Z,19.62
2022-08-29T20:14:16.896Z,19.58
2022-08-29T20:16:47.493Z,19.51
2022-08-29T20:19:19.255Z,19.50
2022-08-29T20:21:50.026Z,19.48
2022-08-29T20:24:20.330Z,19.49
2022-08-29T20:26:50.819Z,19.44
2022-08-29T20:29:28.442Z,19.47
2022-08-29T20:32:00.662Z,19.47
2022-08-29T20:34:31.149Z,19.41
2022-08-29T20:37:11.514Z,19.38
2022-08-29T20:39:46.267Z,19.35
2022-08-29T20:42:18.778Z,19.31
2022-08-29T20:44:51.672Z,19.26
2022-08-29T20:47:23.967Z,19.22
2022-08-29T20:49:58.715Z,19.19
2022-08-29T20:52:29.190Z,19.16
2022-08-29T20:55:00.096Z,19.10
2022-08-29T20:57:30.359Z,19.05
2022-08-29T21:00:03.252Z,18.97
2022-08-29T21:02:45.952Z,18.98
2022-08-29T21:05:28.551Z,18.93
2022-08-29T21:07:58.728Z,18.91
2022-08-29T21:10:29.134Z,18.86
2022-08-29T21:12:59.355Z,18.86
2022-08-29T21:15:32.310Z,18.87
2022-08-29T21:18:02.941Z,18.81
2022-08-29T21:20:33.566Z,18.74
2022-08-29T21:23:05.046Z,18.67
2022-08-29T21:25:35.677Z,18.65
2022-08-29T21:28:07.639Z,18.60
2022-08-29T21:30:45.274Z,18.53
2022-08-29T21:33:16.132Z,18.48
2022-08-29T21:35:47.076Z,18.44
2022-08-29T21:38:21.233Z,18.44
2022-08-29T21:40:51.614Z,18.40
2022-08-29T21:43:22.346Z,18.39
2022-08-29T21:45:55.175Z,18.35
2022-08-29T21:48:25.403Z,18.33
2022-08-29T21:50:57.824Z,18.29
2022-08-29T21:53:28.089Z,18.27
2022-08-29T21:55:58.308Z,18.24
2022-08-29T21:58:28.617Z,18.22
2022-08-29T22:01:01.490Z,18.20
2022-08-29T22:03:31.901Z,18.21
2022-08-29T22:06:02.281Z,18.18
2022-08-29T22:08:33.413Z,18.14
2022-08-29T22:11:03.654Z,18.10
2022-08-29T22:13:33.883Z,18.04
2022-08-29T22:16:19.200Z,18.00
2022-08-29T22:18:49.475Z,17.99
2022-08-29T22:21:20.000Z,17.96
2022-08-29T22:23:50.276Z,17.91
2022-08-29T22:26:20.607Z,17.93
2022-08-29T22:28:54.762Z,17.93
2022-08-29T22:31:28.795Z,17.92
2022-08-29T22:33:59.011Z,17.91
2022-08-29T22:36:29.529Z,17.85
2022-08-29T22:38:59.772Z,17.75
2022-08-29T22:41:29.925Z,17.71
2022-08-29T22:46:54.938Z,17.70
2022-08-29T22:49:32.994Z,17.67
2022-08-29T22:52:03.976Z,17.63
2022-08-29T22:54:40.136Z,17.65
2022-08-29T22:57:13.994Z,17.63
2022-08-29T22:59:46.086Z,17.66
2022-08-29T23:02:20.792Z,17.62
2022-08-29T23:04:52.353Z,17.62
2022-08-29T23:07:22.982Z,17.58
2022-08-29T23:09:53.363Z,17.55
2022-08-29T23:12:23.636Z,17.57
2022-08-29T23:14:54.136Z,17.54
2022-08-29T23:17:27.128Z,17.55
2022-08-29T23:19:57.419Z,17.54
2022-08-29T23:22:28.552Z,17.51
2022-08-29T23:24:59.165Z,17.48
2022-08-29T23:27:30.747Z,17.45
2022-08-29T23:30:02.032Z,17.42
2022-08-29T23:32:34.917Z,17.39
2022-08-29T23:35:05.167Z,17.40
2022-08-29T23:37:35.617Z,17.37
2022-08-29T23:40:07.456Z,17.34
2022-08-29T23:42:38.104Z,17.35
2022-08-29T23:45:10.907Z,17.33
2022-08-29T23:47:43.789Z,17.29
2022-08-29T23:50:15.766Z,17.26
2022-08-29T23:52:47.151Z,17.27
2022-08-29T23:55:19.285Z,17.27
2022-08-29T23:57:49.483Z,17.27
